Time;durP1;ratioP1;P1;durP2;ratioP2;P2;SDS_P1;SDS_P2;PMS_P1;PMS_P2;Temp;Humidity;BMP_temperature;BMP_pressure;BME280_temperature;BME280_humidity;BME280_pressure;Samples;Min_cycle;Max_cycle;Signal;HPM_P1;HPM_P2
2023/05/21 00:02:16;;;;;;;7.65;4.15;;;;;;;;;;5109746;28;20036;-73
2023/05/21 00:04:41;;;;;;;7.85;3.97;;;;;;;;;;5109279;28;20024;-73
2023/05/21 00:07:09;;;;;;;7.13;4.30;;;;;;;;;;5108646;28;20034;-74
2023/05/21 00:09:37;;;;;;;7.72;4.32;;;;;;;;;;5108749;28;20047;-73
2023/05/21 00:12:07;;;;;;;8.27;4.25;;;;;;;;;;5108853;28;20034;-73
2023/05/21 00:14:33;;;;;;;7.10;4.20;;;;;;;;;;5106195;28;20028;-74
2023/05/21 00:16:58;;;;;;;8.18;4.50;;;;;;;;;;5108626;28;20063;-73
2023/05/21 00:19:25;;;;;;;11.20;4.55;;;;;;;;;;5108478;28;20249;-72
2023/05/21 00:21:51;;;;;;;12.57;3.90;;;;;;;;;;5108496;28;20081;-72
2023/05/21 00:24:16;;;;;;;10.73;4.55;;;;;;;;;;5108174;28;20043;-73
2023/05/21 00:26:42;;;;;;;9.32;4.50;;;;;;;;;;5108547;28;20016;-72
2023/05/21 00:29:07;;;;;;;7.45;4.30;;;;;;;;;;5108472;28;20447;-72
2023/05/21 00:31:32;;;;;;;9.15;4.72;;;;;;;;;;5108768;28;20046;-72
2023/05/21 00:33:58;;;;;;;9.43;4.38;;;;;;;;;;5090088;28;20057;-72
2023/05/21 00:36:24;;;;;;;9.18;4.63;;;;;;;;;;5107821;28;20023;-72
2023/05/21 00:38:50;;;;;;;6.80;4.30;;;;;;;;;;5108598;28;20020;-72
2023/05/21 00:41:16;;;;;;;11.60;4.68;;;;;;;;;;5109068;28;20024;-72
2023/05/21 00:43:43;;;;;;;9.00;4.47;;;;;;;;;;5108712;28;20498;-72
2023/05/21 00:46:18;;;;;;;9.07;4.85;;;;;;;;;;5108731;28;20015;-72
2023/05/21 00:48:44;;;;;;;9.15;4.75;;;;;;;;;;5108884;28;20020;-72
2023/05/21 00:51:10;;;;;;;8.48;4.70;;;;;;;;;;5108082;28;20754;-73
2023/05/21 00:53:36;;;;;;;10.25;4.68;;;;;;;;;;5108584;28;20064;-73
2023/05/21 00:56:02;;;;;;;9.30;4.13;;;;;;;;;;5108481;28;20030;-72
2023/05/21 00:58:28;;;;;;;8.80;4.70;;;;;;;;;;5108716;28;20031;-72
2023/05/21 01:00:57;;;;;;;10.23;4.82;;;;;;;;;;5108836;28;20108;-73
2023/05/21 01:03:22;;;;;;;6.68;4.25;;;;;;;;;;5109339;28;20083;-73
2023/05/21 01:05:58;;;;;;;12.25;4.50;;;;;;;;;;5108542;28;20500;-73
2023/05/21 01:08:26;;;;;;;9.65;4.72;;;;;;;;;;5108444;28;20051;-73
2023/05/21 01:10:52;;;;;;;9.00;4.38;;;;;;;;;;5108346;28;20135;-73
2023/05/21 01:13:21;;;;;;;9.52;4.55;;;;;;;;;;5108960;28;20024;-73
2023/05/21 01:15:48;;;;;;;10.30;4.65;;;;;;;;;;5108221;28;20056;-73
2023/05/21 01:18:14;;;;;;;9.20;4.43;;;;;;;;;;5108568;28;20066;-73
2023/05/21 01:20:41;;;;;;;9.05;4.18;;;;;;;;;;5108644;28;20054;-72
2023/05/21 01:23:07;;;;;;;8.60;4.28;;;;;;;;;;5108416;28;20530;-72
2023/05/21 01:25:34;;;;;;;11.35;4.88;;;;;;;;;;5108176;28;20520;-72
2023/05/21 01:27:59;;;;;;;12.18;4.70;;;;;;;;;;5108587;28;20027;-73
2023/05/21 01:30:25;;;;;;;8.05;4.35;;;;;;;;;;5108224;28;20567;-72
2023/05/21 01:33:02;;;;;;;11.05;5.07;;;;;;;;;;5108657;28;20089;-73
2023/05/21 01:35:34;;;;;;;7.28;4.40;;;;;;;;;;5108079;28;20031;-72
2023/05/21 01:38:08;;;;;;;10.13;4.95;;;;;;;;;;5108195;28;20027;-73
2023/05/21 01:40:42;;;;;;;11.75;4.82;;;;;;;;;;5108278;28;20024;-73
2023/05/21 01:43:09;;;;;;;8.68;4.80;;;;;;;;;;5108529;28;20034;-73
2023/05/21 01:45:37;;;;;;;6.28;4.32;;;;;;;;;;5107940;28;20030;-72
2023/05/21 01:48:04;;;;;;;11.25;4.60;;;;;;;;;;5108301;28;20123;-72
2023/05/21 01:50:31;;;;;;;8.80;4.32;;;;;;;;;;5108021;28;20031;-73
2023/05/21 01:52:57;;;;;;;8.40;4.20;;;;;;;;;;5107841;28;20024;-73
2023/05/21 01:55:26;;;;;;;8.57;4.60;;;;;;;;;;5108264;28;20037;-73
2023/05/21 01:57:54;;;;;;;10.32;4.80;;;;;;;;;;5107524;28;20659;-73
2023/05/21 02:00:23;;;;;;;10.10;4.57;;;;;;;;;;5111290;28;20073;-72
2023/05/21 02:02:50;;;;;;;8.77;4.60;;;;;;;;;;5111388;28;20073;-73
2023/05/21 02:05:16;;;;;;;6.43;4.63;;;;;;;;;;5111213;28;20024;-73
2023/05/21 02:07:42;;;;;;;8.80;4.95;;;;;;;;;;5110758;28;20016;-73
2023/05/21 02:10:08;;;;;;;11.40;5.15;;;;;;;;;;5111096;28;20023;-72
2023/05/21 02:12:33;;;;;;;7.88;5.00;;;;;;;;;;5110963;28;20054;-73
2023/05/21 02:14:59;;;;;;;9.77;4.82;;;;;;;;;;5092713;28;20027;-72
2023/05/21 02:17:25;;;;;;;14.02;5.60;;;;;;;;;;5111075;28;20027;-72
2023/05/21 02:19:50;;;;;;;10.30;5.10;;;;;;;;;;5111069;28;20035;-72
2023/05/21 02:22:16;;;;;;;8.25;4.85;;;;;;;;;;5110629;28;20019;-72
2023/05/21 02:24:41;;;;;;;11.15;5.10;;;;;;;;;;5110487;28;20031;-72
2023/05/21 02:27:09;;;;;;;10.98;5.70;;;;;;;;;;5110844;28;20043;-72
2023/05/21 02:29:37;;;;;;;12.75;5.25;;;;;;;;;;5108236;28;20034;-72
2023/05/21 02:32:03;;;;;;;10.95;5.50;;;;;;;;;;5110841;28;20593;-72
2023/05/21 02:34:31;;;;;;;11.75;5.70;;;;;;;;;;5110908;28;20032;-72
2023/05/21 02:36:57;;;;;;;9.48;5.35;;;;;;;;;;5110047;28;20083;-72
2023/05/21 02:39:23;;;;;;;16.05;6.75;;;;;;;;;;5110529;28;20032;-72
2023/05/21 02:41:48;;;;;;;13.38;7.38;;;;;;;;;;5110431;28;20103;-73
2023/05/21 02:44:14;;;;;;;11.00;6.10;;;;;;;;;;5110327;28;20036;-73
2023/05/21 02:46:39;;;;;;;12.45;6.45;;;;;;;;;;5110267;28;20574;-72
2023/05/21 02:49:05;;;;;;;10.52;5.88;;;;;;;;;;5110520;28;20015;-72
2023/05/21 02:51:30;;;;;;;12.77;6.40;;;;;;;;;;5110069;28;20043;-73
2023/05/21 02:53:56;;;;;;;11.43;6.22;;;;;;;;;;5110902;28;20508;-72
2023/05/21 02:56:22;;;;;;;13.50;6.32;;;;;;;;;;5110308;28;20020;-73
2023/05/21 02:58:47;;;;;;;10.15;5.80;;;;;;;;;;5111093;28;20024;-72
2023/05/21 03:01:12;;;;;;;11.73;5.80;;;;;;;;;;5092036;28;20039;-72
2023/05/21 03:03:38;;;;;;;13.23;5.70;;;;;;;;;;5110186;28;20548;-72
2023/05/21 03:06:03;;;;;;;11.05;5.93;;;;;;;;;;5110470;28;20103;-73
2023/05/21 03:08:30;;;;;;;16.70;6.03;;;;;;;;;;5110669;28;20023;-73
2023/05/21 03:10:56;;;;;;;10.07;6.15;;;;;;;;;;5110387;28;20020;-73
2023/05/21 03:13:21;;;;;;;10.65;5.88;;;;;;;;;;5110729;28;20374;-72
2023/05/21 03:15:47;;;;;;;11.20;5.88;;;;;;;;;;5110358;28;20436;-72
2023/05/21 03:18:12;;;;;;;10.23;5.90;;;;;;;;;;5110193;28;20028;-73
2023/05/21 03:20:42;;;;;;;13.68;5.68;;;;;;;;;;5110101;28;20495;-72
2023/05/21 03:23:08;;;;;;;10.82;5.60;;;;;;;;;;5110195;28;20062;-73
2023/05/21 03:25:35;;;;;;;10.48;5.50;;;;;;;;;;5109977;28;20788;-72
2023/05/21 03:28:01;;;;;;;12.48;5.35;;;;;;;;;;5110254;28;20031;-72
2023/05/21 03:30:26;;;;;;;11.02;5.38;;;;;;;;;;5110181;28;20024;-73
2023/05/21 03:32:51;;;;;;;11.57;5.03;;;;;;;;;;5109946;28;20116;-72
2023/05/21 03:35:17;;;;;;;11.82;5.53;;;;;;;;;;5109886;28;20084;-72
2023/05/21 03:37:42;;;;;;;9.48;5.55;;;;;;;;;;5109329;28;20031;-72
2023/05/21 03:40:08;;;;;;;8.68;5.50;;;;;;;;;;5109872;28;20032;-72
2023/05/21 03:42:34;;;;;;;11.00;5.45;;;;;;;;;;5109920;28;20135;-73
2023/05/21 03:44:59;;;;;;;13.18;5.82;;;;;;;;;;5110143;28;20019;-72
2023/05/21 03:47:24;;;;;;;12.18;5.50;;;;;;;;;;5109603;28;20028;-72
2023/05/21 03:49:50;;;;;;;10.82;5.13;;;;;;;;;;5109933;28;20054;-72
2023/05/21 03:52:15;;;;;;;12.50;5.63;;;;;;;;;;5108920;28;20044;-73
2023/05/21 03:54:41;;;;;;;15.32;6.13;;;;;;;;;;5109573;28;20023;-73
2023/05/21 03:57:06;;;;;;;11.48;5.95;;;;;;;;;;5109225;28;20514;-73
2023/05/21 03:59:31;;;;;;;14.40;6.15;;;;;;;;;;5109749;28;20035;-73
2023/05/21 04:01:57;;;;;;;10.40;5.60;;;;;;;;;;5109538;28;20058;-73
2023/05/21 04:04:22;;;;;;;14.27;5.80;;;;;;;;;;5109748;28;20721;-73
2023/05/21 04:06:49;;;;;;;12.38;5.75;;;;;;;;;;5108885;28;20031;-72
2023/05/21 04:09:15;;;;;;;15.48;5.95;;;;;;;;;;5109204;28;20483;-72
2023/05/21 04:11:40;;;;;;;10.93;5.80;;;;;;;;;;5108877;28;20107;-73
2023/05/21 04:14:06;;;;;;;9.98;5.88;;;;;;;;;;5109611;28;20043;-72
2023/05/21 04:16:34;;;;;;;11.70;5.63;;;;;;;;;;5109144;28;20024;-72
2023/05/21 04:18:59;;;;;;;9.63;5.63;;;;;;;;;;5091241;28;20382;-72
2023/05/21 04:21:24;;;;;;;11.82;5.97;;;;;;;;;;5108374;28;20467;-72
2023/05/21 04:23:52;;;;;;;13.50;5.88;;;;;;;;;;5108718;28;20019;-73
2023/05/21 04:26:18;;;;;;;15.07;6.18;;;;;;;;;;5107760;28;20023;-73
2023/05/21 04:28:44;;;;;;;13.02;5.82;;;;;;;;;;5109058;28;20034;-72
2023/05/21 04:31:11;;;;;;;14.13;5.50;;;;;;;;;;5108924;28;20269;-72
2023/05/21 04:33:37;;;;;;;11.05;5.68;;;;;;;;;;5091329;28;20019;-73
2023/05/21 04:36:02;;;;;;;11.25;6.50;;;;;;;;;;5109310;28;20502;-72
2023/05/21 04:38:28;;;;;;;12.40;6.00;;;;;;;;;;5086064;28;20028;-72
2023/05/21 04:40:54;;;;;;;12.50;5.80;;;;;;;;;;5088616;28;20031;-72
2023/05/21 04:43:26;;;;;;;13.73;5.40;;;;;;;;;;5088380;28;20552;-73
2023/05/21 04:45:53;;;;;;;8.73;5.88;;;;;;;;;;5088332;28;20051;-72
2023/05/21 04:48:19;;;;;;;12.63;5.60;;;;;;;;;;5088254;28;20035;-72
2023/05/21 04:50:44;;;;;;;9.23;5.80;;;;;;;;;;5088280;28;20052;-72
2023/05/21 04:53:10;;;;;;;13.63;6.13;;;;;;;;;;5087950;28;20024;-72
2023/05/21 04:55:38;;;;;;;11.40;6.03;;;;;;;;;;5088668;28;20056;-72
2023/05/21 04:58:09;;;;;;;13.27;6.22;;;;;;;;;;5088306;28;20025;-72
2023/05/21 05:00:36;;;;;;;9.95;6.03;;;;;;;;;;5088348;28;20032;-73
2023/05/21 05:03:02;;;;;;;12.68;6.30;;;;;;;;;;5088215;28;20039;-72
2023/05/21 05:05:27;;;;;;;12.63;6.05;;;;;;;;;;5088434;28;20024;-72
2023/05/21 05:07:52;;;;;;;15.15;6.50;;;;;;;;;;5087784;28;20035;-73
2023/05/21 05:10:18;;;;;;;13.18;6.10;;;;;;;;;;5088542;28;20032;-72
2023/05/21 05:12:43;;;;;;;14.15;6.70;;;;;;;;;;5088170;28;20387;-72
2023/05/21 05:15:09;;;;;;;12.63;6.20;;;;;;;;;;5088418;28;20035;-73
2023/05/21 05:17:34;;;;;;;14.18;6.88;;;;;;;;;;5088132;28;20032;-73
2023/05/21 05:20:00;;;;;;;12.52;6.20;;;;;;;;;;5088235;28;20024;-72
2023/05/21 05:22:26;;;;;;;12.82;6.18;;;;;;;;;;5087653;28;20031;-72
2023/05/21 05:24:51;;;;;;;16.92;6.60;;;;;;;;;;5088135;28;20065;-73
2023/05/21 05:27:17;;;;;;;12.13;6.47;;;;;;;;;;5088140;28;20020;-72
2023/05/21 05:29:44;;;;;;;14.80;6.55;;;;;;;;;;5088267;28;20023;-72
2023/05/21 05:32:09;;;;;;;14.25;6.45;;;;;;;;;;5087820;28;20426;-72
2023/05/21 05:34:34;;;;;;;9.90;6.53;;;;;;;;;;5090900;28;20099;-73
2023/05/21 05:37:01;;;;;;;15.73;6.60;;;;;;;;;;5091516;28;20054;-72
2023/05/21 05:39:27;;;;;;;12.65;6.45;;;;;;;;;;5091817;28;20083;-72
2023/05/21 05:41:52;;;;;;;14.70;6.60;;;;;;;;;;5091664;28;20099;-72
2023/05/21 05:44:17;;;;;;;14.05;6.53;;;;;;;;;;5095316;28;20062;-72
2023/05/21 05:46:43;;;;;;;14.63;7.05;;;;;;;;;;5091947;28;20608;-72
2023/05/21 05:49:08;;;;;;;13.27;6.05;;;;;;;;;;5091734;28;20035;-73
2023/05/21 05:51:34;;;;;;;15.27;6.95;;;;;;;;;;5091186;28;20071;-73
2023/05/21 05:53:59;;;;;;;11.63;6.75;;;;;;;;;;5107122;28;20034;-74
2023/05/21 05:56:25;;;;;;;14.27;7.20;;;;;;;;;;5091613;28;20020;-73
2023/05/21 05:58:51;;;;;;;14.35;6.32;;;;;;;;;;5091215;28;20055;-73
2023/05/21 06:01:17;;;;;;;14.85;6.80;;;;;;;;;;5091862;28;20502;-73
2023/05/21 06:03:43;;;;;;;12.35;6.43;;;;;;;;;;5091444;28;20119;-73
2023/05/21 06:06:08;;;;;;;15.00;6.53;;;;;;;;;;5091303;28;20119;-73
2023/05/21 06:08:34;;;;;;;13.20;7.00;;;;;;;;;;5091358;28;20028;-73
2023/05/21 06:11:00;;;;;;;14.57;6.65;;;;;;;;;;5091400;28;20406;-73
2023/05/21 06:13:25;;;;;;;10.77;6.80;;;;;;;;;;5091027;28;20016;-73
2023/05/21 06:15:52;;;;;;;13.80;7.07;;;;;;;;;;5091257;28;20020;-73
2023/05/21 06:18:17;;;;;;;12.23;6.80;;;;;;;;;;5090952;28;20031;-73
2023/05/21 06:20:42;;;;;;;13.95;7.25;;;;;;;;;;5091451;28;20028;-73
2023/05/21 06:23:08;;;;;;;16.00;7.13;;;;;;;;;;5090790;28;20128;-73
2023/05/21 06:25:34;;;;;;;11.13;7.03;;;;;;;;;;5107085;28;20415;-73
2023/05/21 06:27:59;;;;;;;13.50;7.13;;;;;;;;;;5090896;28;20047;-73
2023/05/21 06:30:25;;;;;;;13.30;6.70;;;;;;;;;;5089537;28;20020;-73
2023/05/21 06:32:50;;;;;;;15.23;6.90;;;;;;;;;;5090383;28;20043;-73
2023/05/21 06:35:15;;;;;;;10.93;6.57;;;;;;;;;;5090975;28;20043;-73
2023/05/21 06:37:41;;;;;;;11.88;6.75;;;;;;;;;;5090298;28;20054;-72
2023/05/21 06:40:07;;;;;;;16.15;7.10;;;;;;;;;;5090853;28;20031;-72
2023/05/21 06:42:33;;;;;;;12.85;6.95;;;;;;;;;;5072524;28;20036;-73
2023/05/21 06:44:58;;;;;;;12.98;6.80;;;;;;;;;;5090287;28;20028;-72
2023/05/21 06:47:24;;;;;;;20.65;7.05;;;;;;;;;;5090480;28;20110;-73
2023/05/21 06:49:49;;;;;;;13.15;7.15;;;;;;;;;;5090295;28;20035;-72
2023/05/21 06:52:15;;;;;;;15.50;6.53;;;;;;;;;;5089926;28;20055;-72
2023/05/21 06:54:41;;;;;;;13.75;6.68;;;;;;;;;;5090412;28;20044;-72
2023/05/21 06:57:06;;;;;;;14.43;6.90;;;;;;;;;;5090481;28;20095;-72
2023/05/21 06:59:32;;;;;;;15.23;7.53;;;;;;;;;;5090332;28;20162;-73
2023/05/21 07:01:57;;;;;;;16.83;7.65;;;;;;;;;;5103671;28;20028;-73
2023/05/21 07:04:23;;;;;;;14.93;7.07;;;;;;;;;;5092178;28;20032;-73
2023/05/21 07:06:48;;;;;;;14.75;7.57;;;;;;;;;;5091976;28;20028;-73
2023/05/21 07:09:14;;;;;;;14.75;7.35;;;;;;;;;;5110459;28;20027;-73
2023/05/21 07:11:39;;;;;;;15.50;7.57;;;;;;;;;;5110627;28;20523;-73
2023/05/21 07:14:05;;;;;;;18.88;7.95;;;;;;;;;;5110598;28;20031;-73
2023/05/21 07:16:30;;;;;;;16.35;7.63;;;;;;;;;;5110729;28;20034;-73
2023/05/21 07:18:56;;;;;;;14.13;7.50;;;;;;;;;;5110347;28;20564;-72
2023/05/21 07:21:21;;;;;;;17.65;7.90;;;;;;;;;;5110131;28;20049;-73
2023/05/21 07:23:46;;;;;;;15.55;7.60;;;;;;;;;;5110311;28;20050;-73
2023/05/21 07:26:12;;;;;;;15.32;8.23;;;;;;;;;;5095478;28;20044;-73
2023/05/21 07:28:37;;;;;;;16.45;8.63;;;;;;;;;;5089674;28;20064;-73
2023/05/21 07:31:03;;;;;;;13.65;7.60;;;;;;;;;;5089725;28;20445;-73
2023/05/21 07:33:28;;;;;;;15.93;7.72;;;;;;;;;;5089799;28;20503;-73
2023/05/21 07:35:53;;;;;;;12.15;7.63;;;;;;;;;;5090125;28;20024;-72
2023/05/21 07:38:19;;;;;;;18.95;7.47;;;;;;;;;;5109517;28;20032;-72
2023/05/21 07:40:44;;;;;;;12.65;7.00;;;;;;;;;;5109776;28;20039;-72
2023/05/21 07:43:11;;;;;;;12.85;7.93;;;;;;;;;;5110203;28;20039;-73
2023/05/21 07:45:36;;;;;;;12.27;7.30;;;;;;;;;;5109981;28;20035;-72
2023/05/21 07:48:01;;;;;;;16.70;7.53;;;;;;;;;;5109797;28;20027;-72
2023/05/21 07:50:27;;;;;;;15.23;7.57;;;;;;;;;;5109445;28;20031;-72
2023/05/21 07:52:52;;;;;;;14.32;7.80;;;;;;;;;;5109265;28;20513;-73
2023/05/21 07:55:17;;;;;;;14.05;7.68;;;;;;;;;;5109588;28;20020;-72
2023/05/21 07:57:44;;;;;;;15.48;7.30;;;;;;;;;;5109196;28;20024;-72
2023/05/21 08:00:12;;;;;;;14.35;7.22;;;;;;;;;;5109297;28;20111;-72
2023/05/21 08:02:38;;;;;;;15.75;8.10;;;;;;;;;;5109449;28;20084;-73
2023/05/21 08:05:04;;;;;;;14.27;7.68;;;;;;;;;;5109405;28;20059;-72
2023/05/21 08:07:30;;;;;;;13.45;7.03;;;;;;;;;;5109322;28;20035;-73
2023/05/21 08:09:56;;;;;;;15.07;7.30;;;;;;;;;;5109285;28;20480;-73
2023/05/21 08:12:21;;;;;;;14.35;7.50;;;;;;;;;;5109559;28;20126;-72
2023/05/21 08:14:47;;;;;;;10.98;7.10;;;;;;;;;;5109047;28;20101;-73
2023/05/21 08:17:12;;;;;;;14.05;7.07;;;;;;;;;;5109478;28;20027;-73
2023/05/21 08:19:38;;;;;;;15.68;7.35;;;;;;;;;;5108986;28;20031;-73
2023/05/21 08:22:05;;;;;;;13.20;7.07;;;;;;;;;;5109038;28;20028;-73
2023/05/21 08:24:31;;;;;;;12.55;6.68;;;;;;;;;;5109339;28;20102;-73
2023/05/21 08:26:56;;;;;;;14.90;6.45;;;;;;;;;;5109151;28;20463;-73
2023/05/21 08:29:21;;;;;;;15.13;6.70;;;;;;;;;;5108931;28;20024;-73
2023/05/21 08:31:47;;;;;;;10.88;6.32;;;;;;;;;;5109169;28;20387;-73
2023/05/21 08:34:17;;;;;;;13.30;7.03;;;;;;;;;;5108791;28;20031;-73
2023/05/21 08:36:44;;;;;;;11.40;7.05;;;;;;;;;;5108738;28;20019;-72
2023/05/21 08:39:11;;;;;;;13.07;7.00;;;;;;;;;;5108642;28;20611;-73
2023/05/21 08:41:38;;;;;;;13.95;6.90;;;;;;;;;;5109241;28;20032;-73
2023/05/21 08:44:11;;;;;;;13.10;7.13;;;;;;;;;;5109069;28;20084;-72
2023/05/21 08:46:39;;;;;;;14.57;7.22;;;;;;;;;;5109178;28;20422;-73
2023/05/21 08:49:11;;;;;;;13.77;6.90;;;;;;;;;;5108895;28;20026;-72
2023/05/21 08:51:38;;;;;;;13.63;6.93;;;;;;;;;;5108144;28;20055;-72
2023/05/21 08:54:03;;;;;;;13.55;6.93;;;;;;;;;;5108629;28;20031;-72
2023/05/21 08:56:31;;;;;;;12.73;6.97;;;;;;;;;;5108550;28;20015;-72
2023/05/21 08:58:58;;;;;;;13.82;7.43;;;;;;;;;;5108690;28;20391;-72
2023/05/21 09:01:25;;;;;;;10.75;6.03;;;;;;;;;;5108829;28;20019;-73
2023/05/21 09:03:51;;;;;;;11.55;6.95;;;;;;;;;;5108829;28;20015;-73
2023/05/21 09:06:17;;;;;;;12.35;5.88;;;;;;;;;;5108551;28;20047;-72
2023/05/21 09:08:45;;;;;;;12.13;6.30;;;;;;;;;;5112014;28;20179;-72
2023/05/21 09:11:11;;;;;;;12.88;6.80;;;;;;;;;;5112463;28;20023;-72
2023/05/21 09:13:37;;;;;;;10.60;6.32;;;;;;;;;;5113022;28;20129;-72
2023/05/21 09:16:03;;;;;;;13.23;6.55;;;;;;;;;;5112704;28;20024;-73
2023/05/21 09:18:28;;;;;;;11.57;5.85;;;;;;;;;;5116088;28;20019;-72
2023/05/21 09:20:55;;;;;;;11.10;5.80;;;;;;;;;;5114702;28;20073;-73
2023/05/21 09:23:20;;;;;;;13.00;5.88;;;;;;;;;;5121686;27;20218;-73
2023/05/21 09:25:47;;;;;;;11.68;5.90;;;;;;;;;;5115992;27;20020;-73
2023/05/21 09:28:14;;;;;;;10.75;5.70;;;;;;;;;;5113652;28;20020;-72
2023/05/21 09:30:47;;;;;;;12.75;5.88;;;;;;;;;;5113230;28;20027;-73
2023/05/21 09:33:28;;;;;;;10.77;5.75;;;;;;;;;;5103844;28;20027;-73
2023/05/21 09:35:53;;;;;;;;;;;;;;;;;;5121087;28;20120;-73
2023/05/21 09:38:21;;;;;;;10.10;5.70;;;;;;;;;;5086531;28;20188;-73
2023/05/21 09:40:49;;;;;;;11.07;5.65;;;;;;;;;;5100904;28;20032;-73
2023/05/21 09:43:15;;;;;;;12.30;6.28;;;;;;;;;;5102156;28;20036;-73
2023/05/21 09:45:54;;;;;;;10.50;5.95;;;;;;;;;;5102341;28;20035;-73
2023/05/21 09:48:33;;;;;;;10.43;6.45;;;;;;;;;;5082380;28;20049;-73
2023/05/21 09:51:15;;;;;;;11.75;6.30;;;;;;;;;;5100298;28;20240;-73
2023/05/21 09:53:53;;;;;;;11.02;5.65;;;;;;;;;;5082736;28;20024;-73
2023/05/21 09:56:23;;;;;;;8.95;5.53;;;;;;;;;;5100334;28;20050;-73
2023/05/21 09:59:09;;;;;;;10.40;5.85;;;;;;;;;;5100659;28;20051;-72
2023/05/21 10:01:36;;;;;;;13.25;6.38;;;;;;;;;;5100246;28;20380;-73
2023/05/21 10:04:05;;;;;;;11.05;6.05;;;;;;;;;;5103263;28;20137;-73
2023/05/21 10:06:33;;;;;;;9.65;5.43;;;;;;;;;;5101855;28;20096;-73
2023/05/21 10:09:03;;;;;;;10.45;5.68;;;;;;;;;;5103115;28;20035;-73
2023/05/21 10:11:33;;;;;;;8.88;5.20;;;;;;;;;;5102863;28;20028;-74
2023/05/21 10:14:12;;;;;;;9.95;5.72;;;;;;;;;;5103448;28;20044;-73
2023/05/21 10:16:38;;;;;;;9.25;5.57;;;;;;;;;;5103044;28;20028;-73
2023/05/21 10:19:09;;;;;;;11.80;5.85;;;;;;;;;;5102391;28;20035;-72
2023/05/21 10:21:35;;;;;;;11.82;5.78;;;;;;;;;;5102329;28;20027;-73
2023/05/21 10:24:01;;;;;;;14.40;6.10;;;;;;;;;;5103229;28;20267;-72
2023/05/21 10:26:27;;;;;;;9.27;5.75;;;;;;;;;;5102755;28;20095;-72
2023/05/21 10:28:56;;;;;;;9.90;5.85;;;;;;;;;;5102880;28;20035;-72
2023/05/21 10:31:22;;;;;;;12.68;6.60;;;;;;;;;;5102037;28;20024;-71
2023/05/21 10:33:47;;;;;;;9.60;5.80;;;;;;;;;;5102791;28;20032;-72
2023/05/21 10:36:17;;;;;;;11.13;6.78;;;;;;;;;;5102344;28;20216;-72
2023/05/21 10:38:42;;;;;;;12.38;6.38;;;;;;;;;;5102602;28;20145;-73
2023/05/21 10:41:09;;;;;;;10.80;6.07;;;;;;;;;;5102260;28;20028;-73
2023/05/21 10:43:49;;;;;;;11.00;6.53;;;;;;;;;;5102536;28;20020;-72
2023/05/21 10:46:17;;;;;;;10.70;6.20;;;;;;;;;;5102604;28;20101;-74
2023/05/21 10:49:03;;;;;;;8.77;5.50;;;;;;;;;;5102499;28;20027;-73
2023/05/21 10:51:54;;;;;;;10.57;5.97;;;;;;;;;;5101663;28;20281;-73
2023/05/21 10:54:40;;;;;;;10.40;6.25;;;;;;;;;;5102346;28;20103;-74
2023/05/21 10:57:38;;;;;;;9.23;5.82;;;;;;;;;;5102019;28;20043;-73
2023/05/21 11:00:06;;;;;;;11.98;6.25;;;;;;;;;;5102096;28;20091;-74
2023/05/21 11:02:32;;;;;;;11.98;6.22;;;;;;;;;;5101984;28;20035;-74
2023/05/21 11:04:59;;;;;;;13.88;6.30;;;;;;;;;;5102233;28;20020;-74
2023/05/21 11:07:52;;;;;;;12.85;6.22;;;;;;;;;;5101507;28;20057;-74
2023/05/21 11:10:36;;;;;;;10.18;5.47;;;;;;;;;;5102007;28;20087;-73
2023/05/21 11:13:15;;;;;;;10.52;5.65;;;;;;;;;;5101731;28;20058;-75
2023/05/21 11:16:00;;;;;;;12.18;5.80;;;;;;;;;;5101776;28;20024;-74
2023/05/21 11:18:34;;;;;;;9.57;5.50;;;;;;;;;;5101925;28;20030;-76
2023/05/21 11:21:10;;;;;;;15.60;6.30;;;;;;;;;;5101264;28;20073;-76
2023/05/21 11:23:57;;;;;;;8.85;5.03;;;;;;;;;;5101803;28;20024;-74
2023/05/21 11:26:51;;;;;;;10.52;5.70;;;;;;;;;;5101527;28;20028;-75
2023/05/21 11:29:17;;;;;;;10.73;5.65;;;;;;;;;;5101571;28;20117;-76
2023/05/21 11:32:00;;;;;;;10.48;5.45;;;;;;;;;;5100144;28;20328;-76
2023/05/21 11:34:28;;;;;;;8.90;5.65;;;;;;;;;;5101519;28;20054;-73
2023/05/21 11:37:15;;;;;;;10.52;6.28;;;;;;;;;;5094532;28;20024;-74
2023/05/21 11:39:41;;;;;;;13.55;7.28;;;;;;;;;;5095416;28;20024;-73
2023/05/21 11:42:06;;;;;;;12.45;6.93;;;;;;;;;;5110656;28;20148;-72
2023/05/21 11:44:38;;;;;;;13.85;6.80;;;;;;;;;;5100056;28;20066;-72
2023/05/21 11:47:05;;;;;;;11.30;7.00;;;;;;;;;;5089511;28;20052;-73
2023/05/21 11:49:31;;;;;;;12.45;6.63;;;;;;;;;;5089498;28;20051;-73
2023/05/21 11:51:58;;;;;;;11.52;7.30;;;;;;;;;;5095542;28;20240;-73
2023/05/21 11:54:24;;;;;;;12.00;7.53;;;;;;;;;;5121634;28;20027;-73
2023/05/21 11:56:50;;;;;;;11.05;6.85;;;;;;;;;;5116985;28;20026;-73
2023/05/21 11:59:16;;;;;;;13.88;7.57;;;;;;;;;;5109786;28;20040;-73
2023/05/21 12:01:43;;;;;;;12.55;6.90;;;;;;;;;;5117919;28;20020;-72
2023/05/21 12:04:10;;;;;;;12.50;6.65;;;;;;;;;;5102682;28;20250;-74
2023/05/21 12:06:37;;;;;;;11.38;6.65;;;;;;;;;;5136253;27;20031;-73
2023/05/21 12:09:03;;;;;;;12.63;6.45;;;;;;;;;;5136877;27;20401;-73
2023/05/21 12:11:29;;;;;;;10.77;6.72;;;;;;;;;;5119797;28;20041;-73
2023/05/21 12:13:55;;;;;;;10.93;6.18;;;;;;;;;;5103401;28;20060;-74
2023/05/21 12:16:22;;;;;;;11.15;6.20;;;;;;;;;;5102790;28;20096;-73
2023/05/21 12:18:47;;;;;;;10.23;6.22;;;;;;;;;;5121041;28;20023;-73
2023/05/21 12:21:12;;;;;;;12.13;6.50;;;;;;;;;;5120677;28;20239;-73
2023/05/21 12:23:38;;;;;;;11.68;6.75;;;;;;;;;;5120850;28;20015;-73
2023/05/21 12:26:04;;;;;;;12.15;6.63;;;;;;;;;;5120704;28;20090;-73
2023/05/21 12:28:30;;;;;;;11.85;6.40;;;;;;;;;;5120788;28;20019;-73
2023/05/21 12:30:56;;;;;;;13.07;6.38;;;;;;;;;;5120877;28;20226;-74
2023/05/21 12:33:24;;;;;;;10.52;6.00;;;;;;;;;;5119044;28;20375;-73
2023/05/21 12:35:51;;;;;;;8.82;5.82;;;;;;;;;;5120816;28;20024;-73
2023/05/21 12:38:16;;;;;;;11.95;5.97;;;;;;;;;;5120261;28;20090;-73
2023/05/21 12:40:44;;;;;;;11.40;6.75;;;;;;;;;;5120811;28;20015;-73
2023/05/21 12:43:09;;;;;;;13.27;6.70;;;;;;;;;;5119876;28;20035;-73
2023/05/21 12:45:38;;;;;;;9.40;5.55;;;;;;;;;;5120594;28;20020;-73
2023/05/21 12:48:03;;;;;;;12.57;6.07;;;;;;;;;;5120561;28;20069;-73
2023/05/21 12:50:29;;;;;;;11.75;5.97;;;;;;;;;;5120298;28;20031;-73
2023/05/21 12:52:56;;;;;;;11.98;6.45;;;;;;;;;;5119936;28;20360;-73
2023/05/21 12:55:24;;;;;;;12.70;6.78;;;;;;;;;;5120411;28;20030;-73
2023/05/21 12:58:00;;;;;;;11.38;6.47;;;;;;;;;;5120476;28;20035;-73
2023/05/21 13:00:25;;;;;;;13.93;6.72;;;;;;;;;;5120351;28;20035;-74
2023/05/21 13:02:50;;;;;;;10.57;6.30;;;;;;;;;;5102133;28;20069;-73
2023/05/21 13:05:17;;;;;;;13.32;6.28;;;;;;;;;;5120720;28;20065;-73
2023/05/21 13:07:45;;;;;;;11.77;6.50;;;;;;;;;;5120034;28;20030;-73
2023/05/21 13:10:11;;;;;;;11.32;6.25;;;;;;;;;;5120619;28;20091;-73
2023/05/21 13:12:37;;;;;;;10.50;6.30;;;;;;;;;;5120099;28;20023;-74
2023/05/21 13:15:04;;;;;;;15.00;6.18;;;;;;;;;;5120458;28;20030;-74
2023/05/21 13:17:30;;;;;;;11.43;6.18;;;;;;;;;;5124630;28;20031;-74
2023/05/21 13:20:17;;;;;;;14.73;6.18;;;;;;;;;;5119954;28;20062;-74
2023/05/21 13:22:47;;;;;;;8.95;6.25;;;;;;;;;;5122464;28;20031;-74
2023/05/21 13:25:15;;;;;;;9.25;6.18;;;;;;;;;;5119950;28;20015;-74
2023/05/21 13:27:42;;;;;;;10.23;6.53;;;;;;;;;;5120317;28;20024;-74
2023/05/21 13:30:08;;;;;;;8.23;6.00;;;;;;;;;;5120038;28;20023;-74
2023/05/21 13:32:34;;;;;;;9.07;6.13;;;;;;;;;;5120045;28;20057;-74
2023/05/21 13:35:00;;;;;;;9.70;5.88;;;;;;;;;;5122794;28;20192;-74
2023/05/21 13:37:25;;;;;;;9.25;6.45;;;;;;;;;;5119340;28;20115;-73
2023/05/21 13:39:50;;;;;;;10.15;6.75;;;;;;;;;;5120052;28;20019;-74
2023/05/21 13:42:16;;;;;;;11.77;7.63;;;;;;;;;;5119640;28;20288;-74
2023/05/21 13:44:42;;;;;;;11.82;6.53;;;;;;;;;;5120176;28;20030;-74
2023/05/21 13:47:09;;;;;;;11.65;6.70;;;;;;;;;;5119978;28;20047;-74
2023/05/21 13:49:35;;;;;;;8.60;5.68;;;;;;;;;;5119956;28;20019;-74
2023/05/21 13:52:01;;;;;;;10.48;5.72;;;;;;;;;;5129057;28;20343;-74
2023/05/21 13:54:27;;;;;;;11.50;6.60;;;;;;;;;;5120465;28;20024;-74
2023/05/21 13:56:53;;;;;;;10.80;6.82;;;;;;;;;;5123546;28;20091;-75
2023/05/21 13:59:18;;;;;;;11.05;6.05;;;;;;;;;;5123717;28;20020;-74
2023/05/21 14:01:44;;;;;;;11.10;5.93;;;;;;;;;;5123622;28;20330;-74
2023/05/21 14:04:13;;;;;;;8.93;5.00;;;;;;;;;;5123402;28;20019;-75
2023/05/21 14:06:39;;;;;;;9.20;4.60;;;;;;;;;;5123331;28;20361;-75
2023/05/21 14:09:06;;;;;;;7.43;4.60;;;;;;;;;;5123180;28;20055;-75
2023/05/21 14:11:31;;;;;;;8.50;4.90;;;;;;;;;;5123287;28;20019;-75
2023/05/21 14:13:57;;;;;;;7.13;4.57;;;;;;;;;;5123053;28;20261;-76
2023/05/21 14:16:26;;;;;;;7.55;4.68;;;;;;;;;;5139408;27;20065;-74
2023/05/21 14:18:52;;;;;;;8.77;4.43;;;;;;;;;;5111880;28;20099;-75
2023/05/21 14:21:18;;;;;;;6.13;3.72;;;;;;;;;;5116346;28;20125;-76
2023/05/21 14:23:43;;;;;;;5.70;3.97;;;;;;;;;;5117523;28;20032;-76
2023/05/21 14:26:08;;;;;;;6.45;3.90;;;;;;;;;;5122014;27;20024;-75
2023/05/21 14:28:34;;;;;;;8.95;4.40;;;;;;;;;;5098244;28;20253;-76
2023/05/21 14:30:59;;;;;;;5.75;3.72;;;;;;;;;;5122044;28;20024;-75
2023/05/21 14:33:25;;;;;;;6.18;3.90;;;;;;;;;;5122011;28;20030;-75
2023/05/21 14:35:50;;;;;;;9.35;3.85;;;;;;;;;;5121809;28;20031;-75